Main page
METAR-TAF:

METAR-TAF

Airports :

Lansdowne House Airport

Lansdowne House, Ontario, Canada

latitude: 52-11-44N, longitude: 87-56-03W, elevation: 254 m

Current weather observation

The report was made 38 minutes ago, at 07:00 UTC
Wind 3 kt from the East
Temperature -7°C
Humidity 62%
Pressure 1011 hPa
Visibility: 14.5 km
Scattered clouds at a height of 11000 ft
Scattered clouds at a height of 13000 ft

METAR: CYLH 220700Z AUTO 08003KT 9SM SCT110 SCT130 M07/M13 A2986 RMK SLP133

Time: 03:38 (07:38 UTC)


TAF: missing

Weather observations and forecasts of more than 4000 airports (METAR and TAF reports).

The available stations are represented by yellow and red dots on the map.

Hover mouse over dot to see the name of the station.

Then click to see weather observations and forecasts.

To change the map : click on the green buttons with a black cross to zoom in, on the green button with a dash to zoom out, or on the green arrows for adjacent maps.


METAR-TAF: